Ammon, Idaho
Current Conditions -  °F | °C
As of 2:53 PM on Friday 24 Oct 2014 (Local Time) from KIDA Reporting Station
Clear Clear  
Wind Chill: 70°   Ceiling: Unl
Heat Index: 70°   Visibility: 10mi
Dew Point: 36°   Wind: 14mph
Humidity: 29%   Direction: 200°SSW
Pressure: 30.11"   Gusts: NA
Location:  43.4284°N, 111.925°W
Report Text: KIDA 242053Z 20012KT 10SM CLR 21/02 A3011 RMK AO2 SLP164 T02110022 58014
Loading
Personal Weather Stations






























Interactive Weather Map New forecast layout! Learn more

10-Day Weather Forecast

Advertisements
Track Severe Weather on mobile